ダッカ の空港の天気 - METARとTAF

シャージャラル国際空港(ダッカ) ( VGHS / DAC ) - バングラデシュ ダッカ
飛行場実況気象(Metar)
観測時間12/04 08:00 BDT (12/04 02:00 UTC)
風向・風速静穏 0m/s
視程1600m
天気現象もや
なし
気温23℃
湿度44%
気圧1014hPa
METARVGHS 040200Z 00000KT 1600 BR NSC 23/10 Q1014 TEMPO S/VIS 2000M
過去の天気等 Google飛行場航空写真 Wunderground天気予報

過去48時間のMETAR

飛行場予報(TAF)
発表時間: 12/04 05:00 BDT (12/03 23:00 UTC)
予報対象時間: 4日6時 BDT ~ 5日12時 BDT
風向・風速静穏
視程1500m
天気現象もや
少しの雲 雲底高度 370m
全天の4割程度の雲 雲底高度 3050m
4日10時 BDT ~ 4日12時 BDT に徐々に
風向・風速西 4m/s
視程3000m
天気現象煙霧
少しの雲 雲底高度 460m
全天の4割程度の雲 雲底高度 3050m
4日14時 BDT ~ 4日16時 BDT に徐々に
風向・風速西北西 4m/s
視程3500m
天気現象煙霧
少しの雲 雲底高度 460m
全天の4割程度の雲 雲底高度 3050m
TAF VGHS 032300Z 0400/0506 00000KT 1500 BR FEW012 SCT100
BECMG 0404/0406 28007KT 3000 HZ FEW015 SCT100
BECMG 0408/0410 30008KT 3500 HZ FEW015 SCT100